createdAt,value
2019-05-12T00:00:12.993Z,1012.40
2019-05-12T00:01:13.011Z,1012.42
2019-05-12T00:02:12.987Z,1012.38
2019-05-12T00:03:12.984Z,1012.41
2019-05-12T00:04:12.952Z,1012.42
2019-05-12T00:05:12.941Z,1012.41
2019-05-12T00:06:12.951Z,1012.47
2019-05-12T00:07:12.923Z,1012.44
2019-05-12T00:08:12.923Z,1012.47
2019-05-12T00:09:12.904Z,1012.49
2019-05-12T00:10:12.896Z,1012.50
2019-05-12T00:11:12.881Z,1012.55
2019-05-12T00:12:12.878Z,1012.55
2019-05-12T00:13:12.854Z,1012.52
2019-05-12T00:14:12.856Z,1012.54
2019-05-12T00:15:12.834Z,1012.63
2019-05-12T00:16:12.829Z,1012.61
2019-05-12T00:17:12.844Z,1012.62
2019-05-12T00:18:12.804Z,1012.70
2019-05-12T00:19:12.791Z,1012.70
2019-05-12T00:20:12.786Z,1012.66
2019-05-12T00:21:12.775Z,1012.68
2019-05-12T00:22:12.778Z,1012.70
2019-05-12T00:23:23.988Z,1012.71
2019-05-12T00:24:13.739Z,1012.69
2019-05-12T00:25:12.727Z,1012.71
2019-05-12T00:26:12.725Z,1012.72
2019-05-12T00:27:12.721Z,1012.73
2019-05-12T00:28:12.701Z,1012.67
2019-05-12T00:29:12.689Z,1012.72
2019-05-12T00:30:12.682Z,1012.72
2019-05-12T00:31:12.689Z,1012.78
2019-05-12T00:32:12.667Z,1012.76
2019-05-12T00:33:12.642Z,1012.75
2019-05-12T00:34:12.644Z,1012.79
2019-05-12T00:35:12.644Z,1012.82
2019-05-12T00:36:12.605Z,1012.80
2019-05-12T00:37:12.610Z,1012.76
2019-05-12T00:38:12.590Z,1012.85
2019-05-12T00:39:12.579Z,1012.82
2019-05-12T00:40:12.568Z,1012.81
2019-05-12T00:41:12.569Z,1012.87
2019-05-12T00:42:12.572Z,1012.84
2019-05-12T00:43:12.552Z,1012.82
2019-05-12T00:44:12.522Z,1012.87
2019-05-12T00:45:12.511Z,1012.92
2019-05-12T00:46:12.499Z,1012.83
2019-05-12T00:47:12.489Z,1012.89
2019-05-12T00:48:12.513Z,1012.86
2019-05-12T00:49:12.482Z,1012.86
2019-05-12T00:50:12.456Z,1012.87
2019-05-12T00:51:12.451Z,1012.84
2019-05-12T00:52:12.443Z,1012.91
2019-05-12T00:53:12.433Z,1012.88
2019-05-12T00:54:12.434Z,1012.90
2019-05-12T00:55:12.417Z,1012.87
2019-05-12T00:56:12.393Z,1012.93
2019-05-12T00:57:12.383Z,1012.97
2019-05-12T00:58:12.372Z,1013.01
2019-05-12T00:59:12.384Z,1012.95
2019-05-12T01:00:12.356Z,1013.02
2019-05-12T01:01:12.361Z,1013.00
2019-05-12T01:02:12.335Z,1013.03
2019-05-12T01:03:12.326Z,1013.01
2019-05-12T01:04:12.309Z,1013.06
2019-05-12T01:05:12.321Z,1013.09
2019-05-12T01:06:12.302Z,1013.09
2019-05-12T01:07:12.315Z,1013.08
2019-05-12T01:08:12.268Z,1013.09
2019-05-12T01:09:12.253Z,1013.08
2019-05-12T01:10:12.260Z,1013.11
2019-05-12T01:11:12.234Z,1013.14
2019-05-12T01:12:12.249Z,1013.14
2019-05-12T01:13:12.216Z,1013.19
2019-05-12T01:14:12.207Z,1013.16
2019-05-12T01:15:12.219Z,1013.19
2019-05-12T01:16:12.179Z,1013.19
2019-05-12T01:17:12.179Z,1013.25
2019-05-12T01:18:12.164Z,1013.21
2019-05-12T01:19:12.145Z,1013.27
2019-05-12T01:20:12.142Z,1013.22
2019-05-12T01:21:12.146Z,1013.22
2019-05-12T01:22:12.117Z,1013.22
2019-05-12T01:23:12.113Z,1013.23
2019-05-12T01:24:12.110Z,1013.22
2019-05-12T01:25:12.095Z,1013.31
2019-05-12T01:26:12.117Z,1013.27
2019-05-12T01:27:12.066Z,1013.31
2019-05-12T01:28:12.048Z,1013.33
2019-05-12T01:29:12.049Z,1013.32
2019-05-12T01:30:12.029Z,1013.34
2019-05-12T01:31:12.018Z,1013.31
2019-05-12T01:32:12.029Z,1013.40
2019-05-12T01:33:12.006Z,1013.40
2019-05-12T01:34:11.990Z,1013.27
2019-05-12T01:35:11.986Z,1013.38
2019-05-12T01:36:11.966Z,1013.44
2019-05-12T01:37:11.965Z,1013.49
2019-05-12T01:38:11.953Z,1013.48
2019-05-12T01:39:11.954Z,1013.51
2019-05-12T01:40:11.932Z,1013.49
2019-05-12T01:41:11.911Z,1013.49
2019-05-12T01:42:11.928Z,1013.52
2019-05-12T01:43:11.889Z,1013.58
2019-05-12T01:44:11.888Z,1013.51
2019-05-12T01:45:11.879Z,1013.55
2019-05-12T01:46:11.878Z,1013.57
2019-05-12T01:47:11.852Z,1013.53
2019-05-12T01:48:11.851Z,1013.63
2019-05-12T01:49:11.827Z,1013.63
2019-05-12T01:50:11.816Z,1013.68
2019-05-12T01:51:11.804Z,1013.70
2019-05-12T01:52:11.798Z,1013.67
2019-05-12T01:53:11.803Z,1013.73
2019-05-12T01:54:14.882Z,1013.75
2019-05-12T01:55:11.759Z,1013.75
2019-05-12T01:56:11.761Z,1013.78
2019-05-12T01:57:11.750Z,1013.76
2019-05-12T01:58:11.758Z,1013.79
2019-05-12T01:59:11.728Z,1013.86
2019-05-12T02:00:11.710Z,1013.81
2019-05-12T02:01:11.696Z,1013.84
2019-05-12T02:02:11.708Z,1013.83
2019-05-12T02:03:11.694Z,1013.83
2019-05-12T02:04:11.704Z,1013.86
2019-05-12T02:05:11.660Z,1013.95
2019-05-12T02:06:11.655Z,1013.90
2019-05-12T02:07:11.637Z,1013.93
2019-05-12T02:08:11.635Z,1013.93
2019-05-12T02:09:11.611Z,1013.92
2019-05-12T02:10:11.614Z,1014.04
2019-05-12T02:11:11.598Z,1014.06
2019-05-12T02:12:11.585Z,1014.03
2019-05-12T02:13:11.583Z,1014.06
2019-05-12T02:14:11.556Z,1014.07
2019-05-12T02:15:11.561Z,1014.06
2019-05-12T02:16:11.541Z,1014.06
2019-05-12T02:17:11.535Z,1014.12
2019-05-12T02:18:11.531Z,1014.11
2019-05-12T02:19:11.507Z,1014.08
2019-05-12T02:20:11.502Z,1014.12
2019-05-12T02:21:11.483Z,1014.06
2019-05-12T02:22:11.475Z,1014.13
2019-05-12T02:23:11.470Z,1014.17
2019-05-12T02:24:23.295Z,1014.13
2019-05-12T02:25:12.444Z,1014.14
2019-05-12T02:26:11.431Z,1014.14
2019-05-12T02:27:11.420Z,1014.10
2019-05-12T02:28:11.426Z,1014.15
2019-05-12T02:29:11.407Z,1014.13
2019-05-12T02:30:11.393Z,1014.19
2019-05-12T02:31:11.387Z,1014.15
2019-05-12T02:32:11.373Z,1014.10
2019-05-12T02:33:11.366Z,1014.19
2019-05-12T02:34:15.335Z,1014.17
2019-05-12T02:35:11.344Z,1014.19
2019-05-12T02:36:14.865Z,1014.17
2019-05-12T02:37:11.312Z,1014.21
2019-05-12T02:38:14.288Z,1014.15
2019-05-12T02:39:14.646Z,1014.17
2019-05-12T02:40:14.915Z,1014.11
2019-05-12T02:41:11.282Z,1014.22
2019-05-12T02:42:11.262Z,1014.25
2019-05-12T02:43:11.268Z,1014.22
2019-05-12T02:44:14.658Z,1014.22
2019-05-12T02:45:15.091Z,1014.29
2019-05-12T02:46:11.231Z,1014.27
2019-05-12T02:47:11.213Z,1014.31
2019-05-12T02:48:14.156Z,1014.28
2019-05-12T02:49:11.210Z,1014.32
2019-05-12T02:50:14.367Z,1014.33
2019-05-12T02:51:11.167Z,1014.36
2019-05-12T02:52:11.160Z,1014.29
2019-05-12T02:53:14.220Z,1014.32
2019-05-12T02:54:14.236Z,1014.29
2019-05-12T02:55:11.124Z,1014.36
2019-05-12T02:56:11.116Z,1014.31
2019-05-12T02:57:14.191Z,1014.36
2019-05-12T02:58:11.104Z,1014.40
2019-05-12T02:59:11.105Z,1014.41
2019-05-12T03:00:11.064Z,1014.36
2019-05-12T03:01:11.057Z,1014.37
2019-05-12T03:02:13.959Z,1014.42
2019-05-12T03:03:14.406Z,1014.43
2019-05-12T03:04:11.045Z,1014.45
2019-05-12T03:05:14.583Z,1014.44
2019-05-12T03:06:11.009Z,1014.42
2019-05-12T03:07:10.998Z,1014.42
2019-05-12T03:08:10.981Z,1014.41
2019-05-12T03:09:10.984Z,1014.51
2019-05-12T03:10:10.970Z,1014.45
2019-05-12T03:11:10.950Z,1014.57
2019-05-12T03:12:10.948Z,1014.52
2019-05-12T03:13:10.935Z,1014.54
2019-05-12T03:14:10.949Z,1014.50
2019-05-12T03:15:14.849Z,1014.60
2019-05-12T03:16:10.912Z,1014.56
2019-05-12T03:17:10.891Z,1014.61
2019-05-12T03:18:10.891Z,1014.55
2019-05-12T03:19:10.882Z,1014.58
2019-05-12T03:20:10.853Z,1014.62
2019-05-12T03:21:10.843Z,1014.63
2019-05-12T03:22:13.911Z,1014.62
2019-05-12T03:23:10.824Z,1014.69
2019-05-12T03:24:10.844Z,1014.67
2019-05-12T03:25:20.020Z,1014.71
2019-05-12T03:26:15.110Z,1014.72
2019-05-12T03:27:10.790Z,1014.68
2019-05-12T03:28:10.779Z,1014.79
2019-05-12T03:29:10.760Z,1014.78
2019-05-12T03:30:12.519Z,1014.78
2019-05-12T03:31:22.019Z,1014.81
2019-05-12T03:32:17.312Z,1014.75
2019-05-12T03:33:18.292Z,1014.75
2019-05-12T03:34:18.560Z,1014.82
2019-05-12T03:35:17.045Z,1014.78
2019-05-12T03:36:17.173Z,1014.80
2019-05-12T03:37:17.164Z,1014.84
2019-05-12T03:38:14.532Z,1014.76
2019-05-12T03:39:10.657Z,1014.80
2019-05-12T03:40:10.643Z,1014.83
2019-05-12T03:41:10.643Z,1014.80
2019-05-12T03:42:10.626Z,1014.89
2019-05-12T03:43:10.621Z,1014.89
2019-05-12T03:44:10.608Z,1014.84
2019-05-12T03:45:10.608Z,1014.83
2019-05-12T03:46:10.593Z,1014.92
2019-05-12T03:47:10.568Z,1014.89
2019-05-12T03:48:10.563Z,1014.91
2019-05-12T03:49:10.555Z,1014.96
2019-05-12T03:50:10.546Z,1014.95
2019-05-12T03:51:10.541Z,1014.96
2019-05-12T03:52:10.514Z,1015.02
2019-05-12T03:53:11.357Z,1015.01
2019-05-12T03:54:10.495Z,1015.01
2019-05-12T03:55:29.629Z,1015.04
2019-05-12T03:56:14.858Z,1015.08
2019-05-12T03:57:10.470Z,1015.08
2019-05-12T03:58:10.458Z,1015.04
2019-05-12T03:59:10.466Z,1015.12
2019-05-12T04:00:10.435Z,1015.05
2019-05-12T04:01:10.421Z,1015.15
2019-05-12T04:02:10.431Z,1015.14
2019-05-12T04:03:10.407Z,1015.15
2019-05-12T04:04:10.388Z,1015.12
2019-05-12T04:05:10.376Z,1015.11
2019-05-12T04:06:10.369Z,1015.09
2019-05-12T04:07:10.367Z,1015.16
2019-05-12T04:08:10.358Z,1015.16
2019-05-12T04:09:10.337Z,1015.24
2019-05-12T04:10:10.326Z,1015.24
2019-05-12T04:11:10.317Z,1015.30
2019-05-12T04:12:10.327Z,1015.27
2019-05-12T04:13:10.292Z,1015.31
2019-05-12T04:14:10.276Z,1015.29
2019-05-12T04:15:10.272Z,1015.29
2019-05-12T04:16:10.263Z,1015.40
2019-05-12T04:17:10.273Z,1015.39
2019-05-12T04:18:10.239Z,1015.40
2019-05-12T04:19:10.230Z,1015.43
2019-05-12T04:20:10.245Z,1015.40
2019-05-12T04:21:10.210Z,1015.45
2019-05-12T04:22:10.416Z,1015.51
2019-05-12T04:23:10.189Z,1015.51
2019-05-12T04:24:10.181Z,1015.56
2019-05-12T04:25:10.208Z,1015.57
2019-05-12T04:26:13.340Z,1015.64
2019-05-12T04:27:14.799Z,1015.60
2019-05-12T04:28:10.138Z,1015.61
2019-05-12T04:29:10.128Z,1015.64
2019-05-12T04:30:10.118Z,1015.65
2019-05-12T04:31:10.107Z,1015.67
2019-05-12T04:32:10.085Z,1015.67
2019-05-12T04:33:10.091Z,1015.70
2019-05-12T04:34:14.570Z,1015.69
2019-05-12T04:35:11.065Z,1015.78
2019-05-12T04:36:10.043Z,1015.74
2019-05-12T04:37:10.044Z,1015.75
2019-05-12T04:38:10.049Z,1015.78
2019-05-12T04:39:10.012Z,1015.83
2019-05-12T04:40:10.008Z,1015.85
2019-05-12T04:41:09.994Z,1015.88
2019-05-12T04:42:09.988Z,1015.84
2019-05-12T04:43:09.996Z,1015.87
2019-05-12T04:44:09.964Z,1015.83
2019-05-12T04:45:09.949Z,1015.89
2019-05-12T04:46:09.946Z,1015.94
2019-05-12T04:47:09.926Z,1015.90
2019-05-12T04:48:09.942Z,1015.97
2019-05-12T04:49:09.913Z,1015.99
2019-05-12T04:50:09.897Z,1016.02
2019-05-12T04:51:09.897Z,1015.98
2019-05-12T04:52:09.886Z,1015.98
2019-05-12T04:53:09.873Z,1016.03
2019-05-12T04:54:09.869Z,1016.07
2019-05-12T04:55:09.843Z,1016.07
2019-05-12T04:56:16.824Z,1016.14
2019-05-12T04:57:10.815Z,1016.17
2019-05-12T04:58:09.804Z,1016.17
2019-05-12T04:59:09.815Z,1016.23
2019-05-12T05:00:09.791Z,1016.21
2019-05-12T05:01:09.784Z,1016.25
2019-05-12T05:02:09.771Z,1016.25
2019-05-12T05:03:09.766Z,1016.26
2019-05-12T05:04:09.743Z,1016.31
2019-05-12T05:05:09.743Z,1016.34
2019-05-12T05:06:09.728Z,1016.31
2019-05-12T05:07:09.724Z,1016.39
2019-05-12T05:08:09.703Z,1016.42
2019-05-12T05:09:09.699Z,1016.46
2019-05-12T05:10:09.711Z,1016.44
2019-05-12T05:11:09.674Z,1016.46
2019-05-12T05:12:09.667Z,1016.50
2019-05-12T05:13:09.650Z,1016.48
2019-05-12T05:14:09.642Z,1016.46
2019-05-12T05:15:09.633Z,1016.50
2019-05-12T05:16:09.626Z,1016.53
2019-05-12T05:17:09.622Z,1016.57
2019-05-12T05:18:09.595Z,1016.56
2019-05-12T05:19:09.581Z,1016.62
2019-05-12T05:20:09.579Z,1016.62
2019-05-12T05:21:09.588Z,1016.64
2019-05-12T05:22:09.548Z,1016.69
2019-05-12T05:23:09.538Z,1016.70
2019-05-12T05:24:09.531Z,1016.67
2019-05-12T05:25:09.524Z,1016.76
2019-05-12T05:26:21.151Z,1016.79
2019-05-12T05:27:10.502Z,1016.84
2019-05-12T05:28:09.486Z,1016.88
2019-05-12T05:29:09.474Z,1016.77
2019-05-12T05:30:09.480Z,1016.81
2019-05-12T05:31:09.458Z,1016.86
2019-05-12T05:32:09.473Z,1016.88
2019-05-12T05:33:09.438Z,1016.90
2019-05-12T05:34:09.426Z,1016.95
2019-05-12T05:35:09.415Z,1016.94
2019-05-12T05:36:15.260Z,1016.90
2019-05-12T05:37:10.409Z,1016.99
2019-05-12T05:38:10.879Z,1016.99
2019-05-12T05:39:10.379Z,1017.05
2019-05-12T05:40:09.402Z,1017.01
2019-05-12T05:41:10.563Z,1017.09
2019-05-12T05:42:09.334Z,1017.03
2019-05-12T05:43:17.502Z,1017.10
2019-05-12T05:44:10.317Z,1017.10
2019-05-12T05:45:09.867Z,1017.13
2019-05-12T05:46:10.301Z,1017.13
2019-05-12T05:47:09.286Z,1017.16
2019-05-12T05:48:10.208Z,1017.17
2019-05-12T05:49:09.280Z,1017.21
2019-05-12T05:50:09.248Z,1017.25
2019-05-12T05:51:09.282Z,1017.22
2019-05-12T05:52:09.232Z,1017.29
2019-05-12T05:53:14.347Z,1017.17
2019-05-12T05:54:10.204Z,1017.28
2019-05-12T05:55:14.838Z,1017.28
2019-05-12T05:56:10.203Z,1017.31
2019-05-12T05:57:09.178Z,1017.36
2019-05-12T05:58:10.611Z,1017.28
2019-05-12T05:59:09.159Z,1017.33
2019-05-12T06:00:17.475Z,1017.37
2019-05-12T06:01:10.131Z,1017.39
2019-05-12T06:02:09.122Z,1017.40
2019-05-12T06:03:16.597Z,1017.32
2019-05-12T06:04:10.121Z,1017.32
2019-05-12T06:05:09.097Z,1017.38
2019-05-12T06:06:12.443Z,1017.41
2019-05-12T06:07:10.073Z,1017.45
2019-05-12T06:08:16.572Z,1017.48
2019-05-12T06:09:10.047Z,1017.51
2019-05-12T06:10:09.042Z,1017.51
2019-05-12T06:11:13.703Z,1017.54
2019-05-12T06:12:10.194Z,1017.57
2019-05-12T06:13:09.003Z,1017.54
2019-05-12T06:14:14.089Z,1017.62
2019-05-12T06:15:09.997Z,1017.65
2019-05-12T06:16:11.716Z,1017.57
2019-05-12T06:17:09.969Z,1017.58
2019-05-12T06:18:08.956Z,1017.62
2019-05-12T06:19:08.962Z,1017.66
2019-05-12T06:20:08.942Z,1017.64
2019-05-12T06:21:08.922Z,1017.66
2019-05-12T06:22:13.831Z,1017.68
2019-05-12T06:23:09.896Z,1017.71
2019-05-12T06:24:13.839Z,1017.76
2019-05-12T06:25:09.881Z,1017.67
2019-05-12T06:26:08.863Z,1017.73
2019-05-12T06:27:19.160Z,1017.76
2019-05-12T06:28:09.846Z,1017.75
2019-05-12T06:29:11.467Z,1017.79
2019-05-12T06:30:09.831Z,1017.79
2019-05-12T06:31:08.815Z,1017.83
2019-05-12T06:32:10.805Z,1017.81
2019-05-12T06:33:08.795Z,1017.76
2019-05-12T06:34:15.529Z,1017.72
2019-05-12T06:35:09.763Z,1017.81
2019-05-12T06:36:14.033Z,1017.84
2019-05-12T06:37:16.202Z,1017.77
2019-05-12T06:38:09.754Z,1017.69
2019-05-12T06:39:10.345Z,1017.77
2019-05-12T06:40:09.711Z,1017.79
2019-05-12T06:41:12.737Z,1017.82
2019-05-12T06:42:14.076Z,1017.81
2019-05-12T06:43:09.685Z,1017.82
2019-05-12T06:44:13.727Z,1017.75
2019-05-12T06:45:09.661Z,1017.84
2019-05-12T06:46:11.784Z,1017.84
2019-05-12T06:47:09.651Z,1017.88
2019-05-12T06:48:08.633Z,1017.86
2019-05-12T06:49:12.756Z,1017.82
2019-05-12T06:50:09.610Z,1017.88
2019-05-12T06:51:09.126Z,1017.83
2019-05-12T06:52:09.585Z,1017.93
2019-05-12T06:53:08.572Z,1017.92
2019-05-12T06:54:12.066Z,1017.87
2019-05-12T06:55:09.566Z,1017.87
2019-05-12T06:56:09.504Z,1017.91
2019-05-12T06:57:21.414Z,1017.84
2019-05-12T06:58:09.518Z,1017.94
2019-05-12T06:59:11.579Z,1017.88
2019-05-12T07:00:08.525Z,1017.86
2019-05-12T07:01:10.440Z,1017.89
2019-05-12T07:02:09.483Z,1017.88
2019-05-12T07:03:08.474Z,1017.91
2019-05-12T07:04:10.218Z,1017.92
2019-05-12T07:05:08.455Z,1017.89
2019-05-12T07:06:09.283Z,1017.96
2019-05-12T07:07:09.420Z,1018.00
2019-05-12T07:08:08.419Z,1017.99
2019-05-12T07:09:09.746Z,1017.93
2019-05-12T07:10:13.054Z,1018.00
2019-05-12T07:11:09.384Z,1018.05
2019-05-12T07:12:08.367Z,1018.04
2019-05-12T07:13:08.359Z,1018.11
2019-05-12T07:14:18.818Z,1018.05
2019-05-12T07:15:09.400Z,1018.06
2019-05-12T07:16:10.114Z,1018.14
2019-05-12T07:17:09.317Z,1018.19
2019-05-12T07:18:10.106Z,1018.22
2019-05-12T07:19:17.447Z,1018.13
2019-05-12T07:20:09.314Z,1018.16
2019-05-12T07:21:09.354Z,1018.21
2019-05-12T07:22:21.647Z,1018.21
2019-05-12T07:23:09.258Z,1018.19
2019-05-12T07:24:11.061Z,1018.26
2019-05-12T07:25:08.529Z,1018.21
2019-05-12T07:26:14.189Z,1018.22
2019-05-12T07:27:09.485Z,1018.19
2019-05-12T07:28:08.381Z,1018.29
2019-05-12T07:29:08.190Z,1018.31
2019-05-12T07:30:08.196Z,1018.38
2019-05-12T07:31:08.172Z,1018.49
2019-05-12T07:32:16.460Z,1018.41
2019-05-12T07:33:09.150Z,1018.48
2019-05-12T07:34:08.139Z,1018.49
2019-05-12T07:35:08.130Z,1018.50
2019-05-12T07:36:08.124Z,1018.56
2019-05-12T07:37:08.098Z,1018.57
2019-05-12T07:38:12.093Z,1018.56
2019-05-12T07:39:09.081Z,1018.62
2019-05-12T07:40:08.075Z,1018.59
2019-05-12T07:41:10.689Z,1018.67
2019-05-12T07:42:08.054Z,1018.63
2019-05-12T07:43:09.757Z,1018.69
2019-05-12T07:44:09.032Z,1018.70
2019-05-12T07:45:11.576Z,1018.73
2019-05-12T07:46:09.028Z,1018.67
2019-05-12T07:47:08.001Z,1018.74
2019-05-12T07:48:10.138Z,1018.75
2019-05-12T07:49:07.973Z,1018.80
2019-05-12T07:50:09.954Z,1018.72
2019-05-12T07:51:08.963Z,1018.67
2019-05-12T07:52:07.948Z,1018.77
2019-05-12T07:53:07.941Z,1018.75
2019-05-12T07:54:07.926Z,1018.76
2019-05-12T07:55:07.916Z,1018.76
2019-05-12T07:56:07.917Z,1018.80
2019-05-12T07:57:11.839Z,1018.76
2019-05-12T07:58:14.067Z,1018.75
2019-05-12T07:59:08.865Z,1018.82
2019-05-12T08:00:11.382Z,1018.86
2019-05-12T08:01:08.876Z,1018.85
2019-05-12T08:02:07.849Z,1018.81
2019-05-12T08:03:16.143Z,1018.84
2019-05-12T08:04:08.832Z,1018.81
2019-05-12T08:05:10.935Z,1018.84
2019-05-12T08:06:08.845Z,1018.84
2019-05-12T08:07:07.796Z,1018.89
2019-05-12T08:08:10.845Z,1018.95
2019-05-12T08:09:07.774Z,1018.99
2019-05-12T08:10:17.739Z,1019.04
2019-05-12T08:11:08.757Z,1019.07
2019-05-12T08:12:09.706Z,1019.05
2019-05-12T08:13:08.730Z,1018.96
2019-05-12T08:14:13.678Z,1019.04
2019-05-12T08:15:09.747Z,1019.02
2019-05-12T08:16:07.717Z,1019.10
2019-05-12T08:17:11.945Z,1019.07
2019-05-12T08:18:08.680Z,1019.10
2019-05-12T08:19:08.538Z,1018.95
2019-05-12T08:20:07.656Z,1019.02
2019-05-12T08:21:07.662Z,1018.97
2019-05-12T08:22:07.641Z,1019.13
2019-05-12T08:23:10.430Z,1019.13
2019-05-12T08:24:07.621Z,1019.07
2019-05-12T08:25:07.614Z,1019.05
2019-05-12T08:26:12.058Z,1019.12
2019-05-12T08:27:08.609Z,1019.08
2019-05-12T08:28:15.421Z,1018.95
2019-05-12T08:29:10.381Z,1019.05
2019-05-12T08:30:08.554Z,1019.09
2019-05-12T08:31:07.562Z,1019.09
2019-05-12T08:32:09.927Z,1019.04
2019-05-12T08:33:09.966Z,1019.02
2019-05-12T08:34:07.525Z,1019.02
2019-05-12T08:35:07.505Z,1019.10
2019-05-12T08:36:11.227Z,1019.14
2019-05-12T08:37:08.493Z,1019.12
2019-05-12T08:38:07.483Z,1019.11
2019-05-12T08:39:11.763Z,1019.15
2019-05-12T08:40:08.459Z,1019.11
2019-05-12T08:41:07.481Z,1019.09
2019-05-12T08:42:07.439Z,1019.13
2019-05-12T08:43:10.177Z,1019.21
2019-05-12T08:44:07.428Z,1019.25
2019-05-12T08:45:08.303Z,1019.26
2019-05-12T08:46:12.240Z,1019.21
2019-05-12T08:47:11.688Z,1019.18
2019-05-12T08:48:10.410Z,1019.17
2019-05-12T08:49:08.373Z,1019.21
2019-05-12T08:50:07.363Z,1019.23
2019-05-12T08:51:14.348Z,1019.27
2019-05-12T08:52:08.362Z,1019.26
2019-05-12T08:53:14.021Z,1019.34
2019-05-12T08:54:08.482Z,1019.34
2019-05-12T08:55:07.311Z,1019.32
2019-05-12T08:56:12.856Z,1019.38
2019-05-12T08:57:08.294Z,1019.37
2019-05-12T08:58:07.295Z,1019.39
2019-05-12T08:59:09.677Z,1019.35
2019-05-12T09:00:08.771Z,1019.41
2019-05-12T09:01:07.250Z,1019.48
2019-05-12T09:02:10.478Z,1019.48
2019-05-12T09:03:07.246Z,1019.48
2019-05-12T09:04:12.096Z,1019.44
2019-05-12T09:05:08.215Z,1019.38
2019-05-12T09:06:09.312Z,1019.48
2019-05-12T09:07:08.183Z,1019.56
2019-05-12T09:08:07.184Z,1019.58
2019-05-12T09:09:07.191Z,1019.53
2019-05-12T09:10:07.160Z,1019.62
2019-05-12T09:11:07.151Z,1019.58
2019-05-12T09:12:07.133Z,1019.52
2019-05-12T09:13:07.129Z,1019.47
2019-05-12T09:14:07.129Z,1019.50
2019-05-12T09:15:08.400Z,1019.49
2019-05-12T09:16:09.636Z,1019.46
2019-05-12T09:17:07.495Z,1019.56
2019-05-12T09:18:07.086Z,1019.54
2019-05-12T09:19:10.251Z,1019.64
2019-05-12T09:20:08.987Z,1019.67
2019-05-12T09:21:07.060Z,1019.77
2019-05-12T09:22:16.116Z,1019.73
2019-05-12T09:23:08.033Z,1019.74
2019-05-12T09:24:07.033Z,1019.71
2019-05-12T09:25:08.574Z,1019.66
2019-05-12T09:26:06.997Z,1019.72
2019-05-12T09:27:08.798Z,1019.80
2019-05-12T09:28:06.987Z,1019.84
2019-05-12T09:29:07.520Z,1019.81
2019-05-12T09:30:09.728Z,1019.84
2019-05-12T09:31:06.961Z,1019.88
2019-05-12T09:32:09.526Z,1019.86
2019-05-12T09:33:06.930Z,1019.91
2019-05-12T09:34:11.605Z,1019.92
2019-05-12T09:35:07.912Z,1019.89
2019-05-12T09:36:11.429Z,1019.97
2019-05-12T09:37:07.896Z,1020.02
2019-05-12T09:38:11.474Z,1020.03
2019-05-12T09:39:07.889Z,1019.96
2019-05-12T09:40:06.865Z,1019.96
2019-05-12T09:41:06.860Z,1019.99
2019-05-12T09:42:06.849Z,1019.99
2019-05-12T09:43:10.703Z,1019.97
2019-05-12T09:44:06.833Z,1019.98
2019-05-12T09:45:10.328Z,1020.02
2019-05-12T09:46:06.804Z,1020.04
2019-05-12T09:47:12.905Z,1020.04
2019-05-12T09:48:09.385Z,1020.07
2019-05-12T09:49:06.806Z,1020.01
2019-05-12T09:50:09.735Z,1020.06
2019-05-12T09:51:07.990Z,1020.08
2019-05-12T09:52:06.754Z,1020.17
2019-05-12T09:53:11.320Z,1020.17
2019-05-12T09:54:06.739Z,1020.19
2019-05-12T09:55:06.744Z,1020.17
2019-05-12T09:56:06.711Z,1020.19
2019-05-12T09:57:06.728Z,1020.16
2019-05-12T09:58:06.704Z,1020.23
2019-05-12T09:59:17.109Z,1020.21
2019-05-12T10:00:07.710Z,1020.31
2019-05-12T10:01:06.669Z,1020.25
2019-05-12T10:02:10.473Z,1020.27
2019-05-12T10:03:08.705Z,1020.29
2019-05-12T10:04:10.272Z,1020.26
2019-05-12T10:05:07.628Z,1020.36
2019-05-12T10:06:11.319Z,1020.39
2019-05-12T10:07:07.608Z,1020.31
2019-05-12T10:08:06.610Z,1020.45
2019-05-12T10:09:08.916Z,1020.33
2019-05-12T10:10:07.580Z,1020.33
2019-05-12T10:11:10.439Z,1020.35
2019-05-12T10:12:07.569Z,1020.42
2019-05-12T10:13:06.576Z,1020.39
2019-05-12T10:14:10.797Z,1020.36
2019-05-12T10:15:06.540Z,1020.43
2019-05-12T10:16:08.781Z,1020.31
2019-05-12T10:17:06.529Z,1020.44
2019-05-12T10:18:11.033Z,1020.38
2019-05-12T10:19:06.500Z,1020.43
2019-05-12T10:20:06.496Z,1020.37
2019-05-12T10:21:10.172Z,1020.33
2019-05-12T10:22:07.520Z,1020.42
2019-05-12T10:23:10.325Z,1020.35
2019-05-12T10:24:07.453Z,1020.15
2019-05-12T10:25:06.449Z,1020.22
2019-05-12T10:26:10.120Z,1020.32
2019-05-12T10:27:06.457Z,1020.29
2019-05-12T10:28:11.533Z,1020.34
2019-05-12T10:29:17.469Z,1020.35
2019-05-12T10:30:12.348Z,1020.36
2019-05-12T10:31:07.395Z,1020.39
2019-05-12T10:32:06.416Z,1020.44
2019-05-12T10:33:06.386Z,1020.32
2019-05-12T10:34:06.372Z,1020.40
2019-05-12T10:35:06.364Z,1020.41
2019-05-12T10:36:08.485Z,1020.50
2019-05-12T10:37:06.337Z,1020.55
2019-05-12T10:38:10.700Z,1020.55
2019-05-12T10:39:06.323Z,1020.52
2019-05-12T10:40:06.319Z,1020.53
2019-05-12T10:41:06.308Z,1020.63
2019-05-12T10:42:06.293Z,1020.63
2019-05-12T10:43:06.309Z,1020.62
2019-05-12T10:44:06.283Z,1020.68
2019-05-12T10:45:10.841Z,1020.64
2019-05-12T10:46:07.269Z,1020.59
2019-05-12T10:47:06.259Z,1020.64
2019-05-12T10:48:06.251Z,1020.56
2019-05-12T10:49:06.242Z,1020.51
2019-05-12T10:50:06.222Z,1020.53
2019-05-12T10:51:06.217Z,1020.60
2019-05-12T10:52:06.223Z,1020.59
2019-05-12T10:53:09.908Z,1020.63
2019-05-12T10:54:12.596Z,1020.25
2019-05-12T10:55:07.199Z,1020.49
2019-05-12T10:56:06.171Z,1020.63
2019-05-12T10:57:06.163Z,1020.58
2019-05-12T10:58:07.279Z,1020.66
2019-05-12T10:59:06.154Z,1020.59
2019-05-12T11:00:06.142Z,1020.58
2019-05-12T11:01:08.541Z,1020.60
2019-05-12T11:02:06.122Z,1020.59
2019-05-12T11:03:11.040Z,1020.59
2019-05-12T11:04:07.125Z,1020.47
2019-05-12T11:05:06.110Z,1020.55
2019-05-12T11:06:07.698Z,1020.56
2019-05-12T11:07:06.091Z,1020.61
2019-05-12T11:08:10.786Z,1020.64
2019-05-12T11:09:07.086Z,1020.69
2019-05-12T11:10:15.446Z,1020.60
2019-05-12T11:11:07.072Z,1020.55
2019-05-12T11:12:06.093Z,1020.49
2019-05-12T11:13:08.386Z,1020.49
2019-05-12T11:14:06.036Z,1020.56
2019-05-12T11:15:06.599Z,1020.57
2019-05-12T11:16:06.006Z,1020.56
2019-05-12T11:17:07.679Z,1020.39
2019-05-12T11:18:05.988Z,1020.40
2019-05-12T11:19:10.387Z,1020.52
2019-05-12T11:20:05.979Z,1020.52
2019-05-12T11:21:05.967Z,1020.62
2019-05-12T11:22:05.951Z,1020.72
2019-05-12T11:23:05.947Z,1020.66
2019-05-12T11:24:06.987Z,1020.66
2019-05-12T11:25:05.991Z,1020.63
2019-05-12T11:26:05.901Z,1020.70
2019-05-12T11:27:05.893Z,1020.60
2019-05-12T11:28:05.888Z,1020.70
2019-05-12T11:29:05.882Z,1020.73
2019-05-12T11:30:05.888Z,1020.74
2019-05-12T11:31:05.860Z,1020.83
2019-05-12T11:32:05.855Z,1020.83
2019-05-12T11:33:05.843Z,1020.88
2019-05-12T11:34:06.032Z,1020.90
2019-05-12T11:35:05.846Z,1020.81
2019-05-12T11:36:05.818Z,1020.91
2019-05-12T11:37:06.561Z,1020.96
2019-05-12T11:38:05.804Z,1020.93
2019-05-12T11:39:05.810Z,1020.92
2019-05-12T11:40:05.797Z,1020.96
2019-05-12T11:41:10.067Z,1020.93
2019-05-12T11:42:06.841Z,1020.95
2019-05-12T11:43:05.762Z,1021.08
2019-05-12T11:44:05.749Z,1021.08
2019-05-12T11:45:05.757Z,1021.10
2019-05-12T11:46:05.740Z,1021.09
2019-05-12T11:47:05.737Z,1021.11
2019-05-12T11:48:09.965Z,1021.02
2019-05-12T11:49:05.707Z,1021.13
2019-05-12T11:50:09.770Z,1021.24
2019-05-12T11:51:05.694Z,1021.12
2019-05-12T11:52:13.289Z,1021.25
2019-05-12T11:53:06.674Z,1021.25
2019-05-12T11:54:08.977Z,1021.32
2019-05-12T11:55:06.676Z,1021.30
2019-05-12T11:56:07.652Z,1021.32
2019-05-12T11:57:05.635Z,1021.28
2019-05-12T11:58:09.820Z,1021.37
2019-05-12T11:59:06.613Z,1021.36
2019-05-12T12:00:05.627Z,1021.38
2019-05-12T12:01:08.304Z,1021.40
2019-05-12T12:02:05.590Z,1021.35
2019-05-12T12:03:12.743Z,1021.42
2019-05-12T12:04:06.576Z,1021.37
2019-05-12T12:05:05.607Z,1021.29